Time;durP1;ratioP1;P1;durP2;ratioP2;P2;SDS_P1;SDS_P2;PMS_P1;PMS_P2;Temp;Humidity;BMP_temperature;BMP_pressure;BME280_temperature;BME280_humidity;BME280_pressure;Samples;Min_cycle;Max_cycle;Signal;HPM_P1;HPM_P2
2021/12/02 00:02:14;;;;;;;7.67;1.20;;;3.30;1.00;;;;;;5032141;28;20179;-52
2021/12/02 00:04:40;;;;;;;2.93;1.07;;;3.20;1.00;;;;;;5025755;28;21035;-53
2021/12/02 00:07:06;;;;;;;6.73;1.30;;;3.30;1.00;;;;;;5027287;28;20523;-53
2021/12/02 00:09:34;;;;;;;5.27;0.80;;;3.30;1.00;;;;;;5028299;28;20442;-53
2021/12/02 00:12:00;;;;;;;3.07;1.30;;;3.20;1.00;;;;;;5028031;28;20458;-52
2021/12/02 00:14:27;;;;;;;3.50;1.30;;;3.20;1.00;;;;;;5027796;28;20436;-53
2021/12/02 00:17:04;;;;;;;6.70;1.10;;;3.20;1.00;;;;;;5026058;28;20433;-53
2021/12/02 00:22:15;;;;;;;4.97;1.13;;;3.20;1.00;;;;;;5027828;28;20516;-52
2021/12/02 00:24:47;;;;;;;3.57;1.20;;;3.20;1.00;;;;;;5027574;28;20442;-53
2021/12/02 00:27:13;;;;;;;5.03;1.27;;;3.20;1.00;;;;;;5028396;28;20805;-53
2021/12/02 00:29:40;;;;;;;5.20;1.07;;;3.20;1.00;;;;;;5026511;28;20507;-52
2021/12/02 00:32:08;;;;;;;6.43;1.30;;;3.10;1.00;;;;;;5025742;28;20488;-53
2021/12/02 00:34:41;;;;;;;6.20;1.10;;;3.10;1.00;;;;;;5027765;28;20796;-53
2021/12/02 00:37:08;;;;;;;3.70;1.07;;;3.10;1.00;;;;;;5026124;28;20904;-53
2021/12/02 00:39:34;;;;;;;7.77;1.10;;;3.10;1.00;;;;;;5023434;28;20428;-53
2021/12/02 00:42:00;;;;;;;6.63;1.40;;;3.20;1.00;;;;;;5026260;28;20446;-52
2021/12/02 00:44:29;;;;;;;5.60;1.43;;;3.10;1.00;;;;;;5024565;28;20496;-53
2021/12/02 00:46:55;;;;;;;7.43;1.53;;;3.20;1.00;;;;;;5025057;28;20512;-53
2021/12/02 00:49:21;;;;;;;5.27;1.40;;;3.10;1.00;;;;;;5026823;28;20565;-53
2021/12/02 00:51:52;;;;;;;4.83;1.17;;;3.20;1.00;;;;;;5023993;28;20474;-53
2021/12/02 00:54:18;;;;;;;7.20;3.27;;;3.20;1.00;;;;;;5023182;28;20183;-53
2021/12/02 00:56:44;;;;;;;12.77;2.20;;;3.20;1.00;;;;;;5022092;28;20501;-53
2021/12/02 00:59:10;;;;;;;7.23;1.03;;;3.20;1.00;;;;;;5026256;28;20465;-53
2021/12/02 01:01:38;;;;;;;4.43;1.40;;;3.10;1.00;;;;;;5026831;28;20311;-53
2021/12/02 01:04:15;;;;;;;8.00;2.90;;;3.20;1.00;;;;;;5025648;28;20184;-53
2021/12/02 01:06:42;;;;;;;9.73;1.20;;;3.10;1.00;;;;;;5020747;28;20453;-53
2021/12/02 01:09:10;;;;;;;9.33;1.20;;;3.10;1.00;;;;;;5027390;28;20503;-52
2021/12/02 01:11:36;;;;;;;7.90;1.40;;;3.10;1.00;;;;;;5025517;28;20465;-53
2021/12/02 01:14:02;;;;;;;1.10;0.97;;;3.00;1.00;;;;;;5024503;28;20440;-53
2021/12/02 01:16:28;;;;;;;6.70;0.93;;;3.00;1.00;;;;;;5026396;28;20190;-53
2021/12/02 01:18:54;;;;;;;6.93;1.00;;;3.00;1.00;;;;;;5026198;28;20418;-52
2021/12/02 01:21:22;;;;;;;5.93;1.10;;;3.00;1.00;;;;;;5024094;28;20183;-53
2021/12/02 01:23:50;;;;;;;3.43;0.90;;;2.90;1.00;;;;;;5026269;28;20691;-53
2021/12/02 01:26:18;;;;;;;4.83;1.63;;;3.00;1.00;;;;;;5025598;28;20930;-53
2021/12/02 01:28:45;;;;;;;3.00;0.90;;;3.00;1.00;;;;;;5026015;28;20439;-53
2021/12/02 01:31:11;;;;;;;4.93;1.10;;;3.00;1.00;;;;;;5025006;28;20817;-53
2021/12/02 01:33:38;;;;;;;6.23;1.40;;;2.90;1.00;;;;;;5023476;28;20438;-53
2021/12/02 01:36:04;;;;;;;3.57;1.00;;;2.90;1.00;;;;;;5021529;28;20989;-53
2021/12/02 01:38:32;;;;;;;1.73;0.97;;;2.90;1.00;;;;;;5022466;28;20899;-53
2021/12/02 01:41:00;;;;;;;3.63;1.30;;;2.90;1.00;;;;;;5026180;28;21089;-53
2021/12/02 01:43:53;;;;;;;3.50;1.10;;;2.80;1.00;;;;;;5019923;28;20462;-53
2021/12/02 01:46:21;;;;;;;5.30;1.60;;;2.80;1.00;;;;;;5023008;28;20787;-53
2021/12/02 01:48:51;;;;;;;4.03;1.10;;;2.80;1.00;;;;;;5026879;28;20526;-52
2021/12/02 01:51:18;;;;;;;6.33;1.43;;;2.80;1.00;;;;;;5025123;28;20972;-53
2021/12/02 01:53:48;;;;;;;2.83;1.10;;;2.80;26.10;;;;;;5022629;28;20528;-53
2021/12/02 01:56:16;;;;;;;5.50;1.60;;;2.70;1.00;;;;;;5025341;28;20879;-53
2021/12/02 01:58:46;;;;;;;6.50;1.90;;;2.70;1.00;;;;;;5024930;28;20425;-53
2021/12/02 02:01:23;;;;;;;4.50;1.00;;;2.70;1.00;;;;;;5026323;28;20442;-54
2021/12/02 02:03:51;;;;;;;6.03;0.90;;;2.70;1.00;;;;;;5022807;28;20839;-53
2021/12/02 02:06:29;;;;;;;1.87;1.00;;;2.60;1.00;;;;;;5022956;28;20434;-53
2021/12/02 02:08:57;;;;;;;3.70;1.00;;;2.60;1.00;;;;;;5025040;28;20444;-53
2021/12/02 02:11:27;;;;;;;2.73;1.10;;;2.50;1.00;;;;;;5025821;28;20470;-53
2021/12/02 02:13:54;;;;;;;2.77;0.90;;;2.50;1.00;;;;;;5021859;28;20509;-53
2021/12/02 02:16:19;;;;;;;3.90;1.00;;;2.50;1.00;;;;;;5025895;28;20445;-53
2021/12/02 02:18:45;;;;;;;1.83;0.80;;;2.40;1.00;;;;;;5022879;28;20458;-53
2021/12/02 02:21:14;;;;;;;2.97;1.00;;;2.40;1.00;;;;;;5021959;28;20441;-53
2021/12/02 02:23:58;;;;;;;3.00;0.90;;;2.40;1.00;;;;;;5023111;28;20774;-53
2021/12/02 02:26:33;;;;;;;1.67;1.13;;;2.40;28.40;;;;;;5020679;28;20533;-53
2021/12/02 02:28:59;;;;;;;5.50;1.37;;;2.40;1.00;;;;;;5025870;28;20458;-53
2021/12/02 02:31:28;;;;;;;2.23;1.00;;;2.40;1.00;;;;;;5024791;28;21048;-53
2021/12/02 02:33:54;;;;;;;1.40;0.80;;;2.30;1.00;;;;;;5024135;28;20184;-53
2021/12/02 02:36:22;;;;;;;1.00;0.80;;;2.30;1.00;;;;;;5022217;28;20813;-53
2021/12/02 02:38:56;;;;;;;1.20;0.73;;;2.40;1.00;;;;;;5023027;28;20189;-53
2021/12/02 02:41:35;;;;;;;6.23;0.90;;;2.40;1.00;;;;;;5025975;28;20473;-53
2021/12/02 02:44:03;;;;;;;2.30;1.03;;;2.30;1.00;;;;;;5027233;28;20425;-53
2021/12/02 02:46:34;;;;;;;1.57;0.80;;;2.30;1.00;;;;;;5024242;28;20903;-53
2021/12/02 02:49:04;;;;;;;5.17;0.90;;;2.40;1.00;;;;;;5025224;28;20440;-53
2021/12/02 02:51:32;;;;;;;5.53;0.90;;;2.40;1.00;;;;;;5019860;28;20543;-53
2021/12/02 02:54:04;;;;;;;4.20;0.87;;;2.40;1.00;;;;;;5026189;28;20430;-53
2021/12/02 02:56:32;;;;;;;4.63;0.93;;;2.40;1.00;;;;;;5024336;28;20509;-53
2021/12/02 03:01:49;;;;;;;1.37;0.80;;;2.30;1.00;;;;;;5024572;28;20421;-53
2021/12/02 03:04:33;;;;;;;2.60;0.90;;;2.30;1.00;;;;;;5022168;28;20444;-53
2021/12/02 03:07:11;;;;;;;2.43;1.03;;;2.20;1.00;;;;;;5023564;28;20520;-53
2021/12/02 03:09:49;;;;;;;5.60;1.10;;;2.20;1.00;;;;;;5024905;28;20438;-53
2021/12/02 03:12:36;;;;;;;3.27;1.03;;;2.10;99.90;;;;;;5022674;28;20811;-53
2021/12/02 03:17:28;;;;;;;1.13;1.00;;;2.10;90.10;;;;;;5024202;28;20528;-53
2021/12/02 03:19:54;;;;;;;2.50;0.90;;;2.00;73.60;;;;;;5029553;28;20438;-53
2021/12/02 03:22:20;;;;;;;4.70;1.00;;;2.00;99.90;;;;;;5030240;28;20452;-53
2021/12/02 03:24:45;;;;;;;6.40;1.53;;;2.00;99.90;;;;;;5023514;28;20669;-53
2021/12/02 03:27:11;;;;;;;3.80;0.90;;;2.00;1.00;;;;;;5029634;28;20304;-53
2021/12/02 03:29:38;;;;;;;4.33;0.97;;;1.90;1.00;;;;;;5024559;28;20487;-53
2021/12/02 03:32:04;;;;;;;7.60;0.90;;;1.90;1.00;;;;;;5030456;28;20278;-53
2021/12/02 03:34:30;;;;;;;2.97;0.93;;;1.90;99.90;;;;;;5022327;28;20947;-53
2021/12/02 03:36:56;;;;;;;4.70;1.07;;;1.90;99.90;;;;;;5026535;28;20447;-53
2021/12/02 03:39:22;;;;;;;3.33;0.90;;;1.90;1.00;;;;;;5026887;28;20187;-53
2021/12/02 03:41:48;;;;;;;6.23;1.40;;;1.80;81.10;;;;;;5029210;28;20213;-52
2021/12/02 03:44:13;;;;;;;7.80;1.10;;;1.80;99.90;;;;;;5026992;28;20249;-53
2021/12/02 03:46:40;;;;;;;3.97;1.27;;;1.80;12.70;;;;;;5028746;28;20826;-53
2021/12/02 03:49:07;;;;;;;3.33;1.17;;;1.80;99.90;;;;;;5024652;28;20195;-52
2021/12/02 03:51:32;;;;;;;2.70;1.17;;;1.80;99.90;;;;;;5028123;28;20465;-53
2021/12/02 03:53:58;;;;;;;4.60;1.03;;;1.90;99.90;;;;;;5027504;28;20442;-53
2021/12/02 03:56:24;;;;;;;3.93;1.00;;;1.90;99.90;;;;;;5028465;28;20215;-53
2021/12/02 03:58:51;;;;;;;2.83;1.30;;;1.80;99.90;;;;;;5026261;28;20260;-52
2021/12/02 04:01:18;;;;;;;11.87;1.40;;;1.80;99.90;;;;;;5027027;28;20444;-53
2021/12/02 04:03:44;;;;;;;2.10;0.90;;;1.80;99.90;;;;;;5027360;28;20544;-52
2021/12/02 04:06:11;;;;;;;1.27;1.00;;;1.70;99.90;;;;;;5028100;28;21299;-53
2021/12/02 04:16:27;;;;;;;1.53;1.03;;;1.60;99.90;;;;;;5025566;28;20257;-52
2021/12/02 04:18:53;;;;;;;4.37;1.00;;;1.50;1.00;;;;;;5026662;28;20436;-52
2021/12/02 04:21:18;;;;;;;3.33;0.90;;;1.50;99.90;;;;;;5027830;28;20433;-52
2021/12/02 04:23:44;;;;;;;7.20;1.10;;;1.50;1.00;;;;;;5025621;28;20306;-52
2021/12/02 04:26:10;;;;;;;7.60;0.93;;;1.50;1.00;;;;;;5025378;28;20191;-52
2021/12/02 04:28:35;;;;;;;5.70;1.07;;;1.40;1.00;;;;;;5026343;28;20192;-52
2021/12/02 04:31:01;;;;;;;6.20;0.87;;;1.40;1.00;;;;;;5027188;28;20910;-53
2021/12/02 04:33:29;;;;;;;3.00;1.10;;;1.40;1.00;;;;;;5025108;28;20263;-52
2021/12/02 04:35:55;;;;;;;4.23;1.30;;;1.40;52.30;;;;;;5027508;28;20988;-52
2021/12/02 04:38:20;;;;;;;5.30;0.93;;;1.40;1.00;;;;;;5024092;28;20446;-52
2021/12/02 04:40:46;;;;;;;5.80;1.20;;;1.40;1.00;;;;;;5028768;28;20191;-53
2021/12/02 04:43:12;;;;;;;4.40;0.80;;;1.30;1.00;;;;;;5025855;28;20202;-53
2021/12/02 04:45:37;;;;;;;5.00;1.50;;;1.30;1.00;;;;;;5025634;28;20187;-53
2021/12/02 04:48:03;;;;;;;4.30;1.07;;;1.30;99.90;;;;;;5024131;28;20191;-53
2021/12/02 04:50:29;;;;;;;3.97;1.43;;;1.30;99.90;;;;;;5026896;28;20317;-53
2021/12/02 04:52:55;;;;;;;5.47;1.40;;;1.30;99.90;;;;;;5024164;28;20196;-53
2021/12/02 04:55:21;;;;;;;1.63;1.07;;;1.30;99.90;;;;;;5027548;28;20449;-52
2021/12/02 04:57:50;;;;;;;6.30;1.47;;;1.30;99.90;;;;;;5025315;28;20533;-53
2021/12/02 05:00:16;;;;;;;3.33;0.97;;;1.30;1.00;;;;;;5028169;28;20540;-53
2021/12/02 05:02:43;;;;;;;2.83;1.03;;;1.30;1.00;;;;;;5026449;28;21161;-53
2021/12/02 05:05:08;;;;;;;1.53;1.13;;;1.20;1.00;;;;;;5025176;28;20429;-53
2021/12/02 05:07:34;;;;;;;1.60;1.10;;;1.30;99.90;;;;;;5026692;28;20463;-53
2021/12/02 05:10:01;;;;;;;2.40;0.90;;;1.20;89.00;;;;;;5023994;28;20194;-53
2021/12/02 05:12:27;;;;;;;2.97;1.00;;;1.20;73.50;;;;;;5022701;28;21265;-53
2021/12/02 05:14:52;;;;;;;5.93;1.50;;;1.20;99.90;;;;;;5024231;28;20438;-53
2021/12/02 05:17:18;;;;;;;11.83;1.43;;;1.20;99.90;;;;;;5024544;28;20190;-53
2021/12/02 05:19:44;;;;;;;2.97;1.47;;;1.20;99.90;;;;;;5023027;28;20897;-53
2021/12/02 05:22:10;;;;;;;2.90;1.10;;;1.30;99.90;;;;;;5026231;28;20187;-52
2021/12/02 05:24:36;;;;;;;4.23;1.10;;;1.30;99.90;;;;;;5026308;28;20818;-53
2021/12/02 05:27:02;;;;;;;2.40;0.90;;;1.20;99.90;;;;;;5022642;28;20437;-52
2021/12/02 05:29:28;;;;;;;4.03;0.90;;;1.20;99.90;;;;;;5025407;28;20434;-53
2021/12/02 05:31:53;;;;;;;7.13;1.17;;;1.20;1.00;;;;;;5022625;28;20473;-53
2021/12/02 05:34:19;;;;;;;9.23;1.80;;;1.20;1.00;;;;;;5024427;28;20248;-53
2021/12/02 05:36:44;;;;;;;6.40;1.43;;;1.20;6.00;;;;;;5022161;28;20262;-53
2021/12/02 05:39:10;;;;;;;4.43;1.43;;;1.30;43.50;;;;;;5021639;28;20186;-53
2021/12/02 05:41:36;;;;;;;2.80;1.00;;;1.30;99.90;;;;;;5025420;28;20187;-53
2021/12/02 05:44:02;;;;;;;7.63;1.40;;;1.30;99.90;;;;;;5024695;28;20187;-53
2021/12/02 05:46:27;;;;;;;8.63;1.30;;;1.30;99.90;;;;;;5026114;28;20699;-53
2021/12/02 05:48:53;;;;;;;6.20;1.20;;;1.30;1.00;;;;;;5024596;28;20916;-53
2021/12/02 05:51:19;;;;;;;10.03;1.50;;;1.20;99.90;;;;;;5026498;28;20234;-53
2021/12/02 05:53:44;;;;;;;5.80;1.23;;;1.20;1.00;;;;;;5026365;28;20194;-53
2021/12/02 05:56:10;;;;;;;5.90;1.40;;;1.10;99.90;;;;;;5026031;28;20197;-53
2021/12/02 05:58:35;;;;;;;3.53;1.30;;;1.10;99.90;;;;;;5025230;28;20554;-53
2021/12/02 06:01:01;;;;;;;3.23;1.60;;;1.10;99.90;;;;;;5026819;28;20194;-52
2021/12/02 06:03:26;;;;;;;3.50;2.13;;;1.10;1.00;;;;;;5021569;28;20190;-52
2021/12/02 06:05:52;;;;;;;4.27;1.30;;;1.10;99.90;;;;;;5025787;28;20194;-53
2021/12/02 06:08:18;;;;;;;5.43;1.30;;;1.10;99.90;;;;;;5025949;28;20978;-53
2021/12/02 06:10:43;;;;;;;3.33;1.17;;;1.10;99.90;;;;;;5022188;28;20215;-53
2021/12/02 06:13:09;;;;;;;3.07;1.23;;;1.10;1.70;;;;;;5022161;28;20558;-53
2021/12/02 06:15:35;;;;;;;3.90;1.20;;;1.10;99.90;;;;;;5022919;28;20182;-53
2021/12/02 06:18:00;;;;;;;3.37;1.20;;;1.10;99.90;;;;;;5023339;28;20441;-53
2021/12/02 06:20:26;;;;;;;9.83;1.30;;;1.10;99.90;;;;;;5022661;28;20189;-53
2021/12/02 06:22:51;;;;;;;4.60;1.30;;;1.10;99.90;;;;;;5025439;28;20692;-53
2021/12/02 06:27:51;;;;;;;7.90;1.80;;;1.10;99.90;;;;;;5027020;28;20184;-53
2021/12/02 06:30:18;;;;;;;5.23;1.70;;;1.10;99.90;;;;;;5022561;28;20533;-53
2021/12/02 06:32:44;;;;;;;9.30;1.67;;;1.10;99.90;;;;;;5025128;28;20453;-53
2021/12/02 06:35:11;;;;;;;9.40;3.90;;;1.10;99.90;;;;;;5025203;28;20433;-53
2021/12/02 06:37:37;;;;;;;14.73;1.63;;;1.00;99.90;;;;;;5024968;28;20488;-53
2021/12/02 06:40:04;;;;;;;4.63;1.53;;;1.00;99.90;;;;;;5022841;28;20567;-53
2021/12/02 06:42:30;;;;;;;7.70;1.40;;;1.00;99.90;;;;;;5023027;28;20503;-53
2021/12/02 06:44:59;;;;;;;5.53;1.63;;;1.00;12.60;;;;;;5025993;28;20430;-53
2021/12/02 06:47:30;;;;;;;4.70;1.90;;;1.00;99.90;;;;;;5025133;28;20277;-53
2021/12/02 06:49:56;;;;;;;5.57;1.60;;;0.90;99.90;;;;;;5027624;28;20465;-53
2021/12/02 06:52:23;;;;;;;5.20;1.47;;;0.90;99.90;;;;;;5027812;28;20481;-53
2021/12/02 06:54:50;;;;;;;5.77;1.50;;;1.00;99.90;;;;;;5027636;28;20485;-53
2021/12/02 06:57:16;;;;;;;4.30;1.50;;;0.90;99.90;;;;;;5030201;28;20465;-57
2021/12/02 06:59:42;;;;;;;6.57;1.63;;;0.90;99.90;;;;;;5024549;28;20438;-53
2021/12/02 07:02:08;;;;;;;10.20;1.90;;;0.90;1.00;;;;;;5029356;28;20448;-53
2021/12/02 07:04:34;;;;;;;8.00;1.60;;;0.90;1.00;;;;;;5029051;28;20837;-53
2021/12/02 07:06:59;;;;;;;3.47;1.33;;;0.90;99.90;;;;;;5023813;28;20429;-53
2021/12/02 07:09:25;;;;;;;8.73;1.40;;;0.80;1.00;;;;;;5026899;28;20214;-53
2021/12/02 07:11:51;;;;;;;9.13;1.50;;;0.80;99.90;;;;;;5026456;28;20622;-53
2021/12/02 07:14:18;;;;;;;12.87;2.00;;;0.80;99.90;;;;;;5025394;28;20665;-53
2021/12/02 07:16:43;;;;;;;6.23;1.50;;;0.80;99.90;;;;;;5029160;28;20372;-53
2021/12/02 07:19:10;;;;;;;14.77;1.80;;;0.80;99.90;;;;;;5028524;28;20505;-53
2021/12/02 07:21:38;;;;;;;7.70;1.70;;;0.80;99.90;;;;;;5030915;28;20187;-53
2021/12/02 07:24:05;;;;;;;8.23;1.50;;;0.90;99.90;;;;;;5027157;28;20436;-53
2021/12/02 07:26:40;;;;;;;7.07;1.80;;;0.90;99.90;;;;;;5026317;28;20469;-53
2021/12/02 07:29:06;;;;;;;6.20;2.20;;;0.80;99.90;;;;;;5028675;28;20483;-53
2021/12/02 07:31:33;;;;;;;8.67;1.60;;;0.80;99.90;;;;;;5027893;28;20469;-53
2021/12/02 07:34:02;;;;;;;10.03;1.80;;;0.80;99.90;;;;;;5024179;28;20484;-52
2021/12/02 07:36:28;;;;;;;6.70;1.67;;;0.80;99.90;;;;;;5024659;28;20449;-52
2021/12/02 07:38:55;;;;;;;6.10;1.43;;;0.80;99.90;;;;;;5024177;28;20488;-53
2021/12/02 07:41:20;;;;;;;7.00;1.50;;;0.80;99.90;;;;;;5027994;28;20791;-53
2021/12/02 07:43:46;;;;;;;11.07;1.57;;;0.80;99.90;;;;;;5022919;28;20453;-62
2021/12/02 07:46:11;;;;;;;5.20;2.20;;;0.70;99.90;;;;;;5028433;28;20199;-53
2021/12/02 07:48:37;;;;;;;5.67;1.30;;;0.80;99.90;;;;;;5026237;28;20544;-53
2021/12/02 07:51:12;;;;;;;5.87;1.87;;;0.70;1.00;;;;;;5029014;28;20231;-53
2021/12/02 07:53:43;;;;;;;3.80;1.40;;;0.80;99.90;;;;;;5024100;28;20183;-53
2021/12/02 07:56:10;;;;;;;5.50;1.70;;;0.80;1.00;;;;;;5023867;28;20958;-53
2021/12/02 07:58:40;;;;;;;5.27;2.00;;;0.80;99.90;;;;;;5023203;28;20458;-53
2021/12/02 08:01:06;;;;;;;2.90;2.17;;;0.90;99.90;;;;;;5028486;28;20422;-53
2021/12/02 08:03:32;;;;;;;4.83;1.80;;;0.90;99.90;;;;;;5032950;28;20426;-54
2021/12/02 08:05:58;;;;;;;8.53;2.50;;;0.80;99.90;;;;;;5016136;28;20729;-54
2021/12/02 08:08:23;;;;;;;4.53;1.87;;;0.90;99.90;;;;;;5023567;28;20275;-53
2021/12/02 08:10:49;;;;;;;6.30;1.87;;;0.80;99.90;;;;;;5032719;28;20962;-53
2021/12/02 08:13:15;;;;;;;5.57;1.73;;;0.80;99.90;;;;;;5022451;28;20214;-53
2021/12/02 08:15:42;;;;;;;7.83;1.90;;;0.80;99.90;;;;;;5012618;28;20199;-52
2021/12/02 08:18:08;;;;;;;8.03;1.70;;;0.90;99.90;;;;;;5024312;28;20202;-53
2021/12/02 08:20:35;;;;;;;6.57;1.83;;;0.90;99.90;;;;;;5030468;28;20432;-53
2021/12/02 08:23:01;;;;;;;8.93;1.73;;;0.90;99.90;;;;;;5024552;28;20516;-54
2021/12/02 08:25:28;;;;;;;8.47;1.43;;;0.90;99.90;;;;;;5021235;28;20975;-53
2021/12/02 08:27:56;;;;;;;7.53;1.80;;;0.90;99.90;;;;;;5021814;28;20524;-54
2021/12/02 08:30:26;;;;;;;5.37;2.10;;;1.00;1.00;;;;;;5030634;28;20422;-54
2021/12/02 08:32:52;;;;;;;2.77;1.43;;;1.00;99.90;;;;;;5020854;28;20485;-53
2021/12/02 08:35:18;;;;;;;5.50;1.73;;;1.10;99.90;;;;;;5012464;28;20781;-53
2021/12/02 08:37:46;;;;;;;4.13;1.80;;;1.10;99.90;;;;;;5016416;28;20431;-54
2021/12/02 08:40:16;;;;;;;2.37;1.47;;;1.10;99.90;;;;;;5026191;28;20912;-53
2021/12/02 08:42:42;;;;;;;11.17;2.13;;;1.20;1.00;;;;;;5013852;28;20862;-53
2021/12/02 08:45:08;;;;;;;5.10;1.97;;;1.20;99.90;;;;;;5013967;28;20529;-53
2021/12/02 08:47:35;;;;;;;3.67;1.53;;;1.20;99.90;;;;;;5012095;28;20294;-54
2021/12/02 08:50:01;;;;;;;5.27;1.40;;;1.20;99.90;;;;;;5022892;28;20484;-54
2021/12/02 08:52:28;;;;;;;2.90;1.30;;;1.30;99.90;;;;;;5020393;28;21269;-53
2021/12/02 08:54:54;;;;;;;6.60;1.77;;;1.30;99.90;;;;;;5023123;28;20187;-53
2021/12/02 08:57:22;;;;;;;8.50;3.87;;;1.30;99.90;;;;;;5015142;28;20445;-53
2021/12/02 08:59:49;;;;;;;11.33;2.80;;;1.40;99.90;;;;;;5017048;28;20520;-53
2021/12/02 09:02:15;;;;;;;8.63;2.60;;;1.40;99.90;;;;;;5018607;28;20457;-54
2021/12/02 09:04:41;;;;;;;15.60;2.23;;;1.40;99.90;;;;;;5016729;28;20460;-54
2021/12/02 09:07:07;;;;;;;6.23;2.10;;;1.50;99.90;;;;;;5016264;28;20434;-54
2021/12/02 09:09:35;;;;;;;3.60;1.60;;;1.50;99.90;;;;;;5019484;28;20641;-53
2021/12/02 09:12:01;;;;;;;10.23;1.90;;;1.60;99.90;;;;;;5017829;28;20466;-54
2021/12/02 09:14:26;;;;;;;6.53;2.03;;;1.60;99.90;;;;;;5019308;28;20441;-54
2021/12/02 09:16:52;;;;;;;6.07;1.90;;;1.60;1.00;;;;;;5017279;28;20438;-54
2021/12/02 09:19:18;;;;;;;3.27;1.40;;;1.60;99.90;;;;;;5019269;28;20194;-55
2021/12/02 09:21:44;;;;;;;11.93;1.67;;;1.60;99.90;;;;;;5021064;28;20191;-54
2021/12/02 09:24:11;;;;;;;6.90;1.80;;;1.60;99.90;;;;;;5020902;28;20449;-54
2021/12/02 09:26:38;;;;;;;3.03;1.57;;;1.70;99.90;;;;;;5019746;28;20198;-55
2021/12/02 09:29:04;;;;;;;4.10;1.50;;;1.70;99.90;;;;;;5015968;28;20450;-55
2021/12/02 09:31:30;;;;;;;7.53;1.70;;;1.70;99.90;;;;;;5017099;28;20469;-54
2021/12/02 09:33:55;;;;;;;9.17;1.90;;;1.70;99.90;;;;;;5018858;28;20445;-54
2021/12/02 09:36:21;;;;;;;6.47;1.60;;;1.70;99.90;;;;;;5015446;28;20295;-54
2021/12/02 09:38:47;;;;;;;9.20;2.37;;;1.80;1.00;;;;;;5018083;28;20201;-54
2021/12/02 09:41:13;;;;;;;10.70;2.40;;;1.80;99.90;;;;;;5018978;28;20199;-54
2021/12/02 09:43:39;;;;;;;3.63;1.60;;;1.80;99.90;;;;;;5015648;28;20278;-55
2021/12/02 09:46:05;;;;;;;7.60;1.50;;;1.80;99.90;;;;;;5017075;28;20187;-54
2021/12/02 09:48:32;;;;;;;6.83;1.77;;;1.90;99.90;;;;;;5017171;28;20474;-55
2021/12/02 09:51:14;;;;;;;10.70;2.20;;;1.90;99.90;;;;;;5015036;28;20690;-55
2021/12/02 09:53:52;;;;;;;4.53;2.13;;;1.90;99.90;;;;;;5014760;28;20529;-54
2021/12/02 09:56:30;;;;;;;4.73;1.77;;;2.00;99.90;;;;;;5014189;28;20441;-54
2021/12/02 09:59:03;;;;;;;4.30;1.50;;;2.00;99.90;;;;;;5017340;28;20455;-55
2021/12/02 10:01:40;;;;;;;6.88;1.60;;;2.00;99.90;;;;;;5015478;28;20445;-55
2021/12/02 10:04:09;;;;;;;5.47;1.80;;;2.10;99.90;;;;;;5018114;28;20275;-54
2021/12/02 10:06:34;;;;;;;9.33;1.70;;;2.20;99.90;;;;;;5016486;28;20443;-54
2021/12/02 10:09:37;;;;;;;6.17;1.87;;;2.30;99.90;;;;;;5018404;28;20456;-54
2021/12/02 10:12:12;;;;;;;5.57;1.80;;;2.30;99.90;;;;;;5013798;28;20203;-55
2021/12/02 10:14:39;;;;;;;5.20;2.00;;;2.40;99.90;;;;;;5016593;28;20441;-55
2021/12/02 10:17:21;;;;;;;5.63;1.43;;;2.50;99.90;;;;;;5018412;28;20445;-54
2021/12/02 10:23:15;;;;;;;11.40;1.50;;;2.70;99.90;;;;;;5017308;28;20536;-53
2021/12/02 10:25:55;;;;;;;14.90;2.17;;;2.80;99.90;;;;;;5017288;28;20581;-54
2021/12/02 10:28:21;;;;;;;4.93;1.60;;;3.00;99.90;;;;;;5021392;28;20437;-60
2021/12/02 10:30:50;;;;;;;4.83;2.07;;;3.40;15.70;;;;;;5018760;28;21101;-54
2021/12/02 10:33:45;;;;;;;2.43;1.63;;;4.20;99.90;;;;;;5021372;28;20526;-54
2021/12/02 10:36:33;;;;;;;4.47;1.40;;;5.20;99.90;;;;;;5012620;28;20578;-53
2021/12/02 10:39:08;;;;;;;11.37;1.90;;;5.70;99.90;;;;;;5017766;28;20442;-54
2021/12/02 10:41:34;;;;;;;5.30;1.80;;;6.20;99.90;;;;;;5017865;28;20434;-53
2021/12/02 10:44:08;;;;;;;3.80;2.00;;;7.70;99.90;;;;;;5022043;28;20444;-54
2021/12/02 10:46:35;;;;;;;5.17;1.50;;;9.40;1.00;;;;;;5017209;28;20450;-55
2021/12/02 10:49:03;;;;;;;2.90;1.53;;;10.90;99.90;;;;;;5019348;28;20452;-54
2021/12/02 10:51:46;;;;;;;7.93;1.90;;;11.30;1.00;;;;;;5021215;28;20804;-55
2021/12/02 10:54:15;;;;;;;4.70;1.80;;;11.80;99.90;;;;;;5019150;28;20442;-54
2021/12/02 10:56:46;;;;;;;2.50;1.57;;;12.10;50.10;;;;;;5018707;28;20434;-54
2021/12/02 10:59:33;;;;;;;2.77;1.30;;;12.40;99.90;;;;;;5020376;28;20445;-55
2021/12/02 11:02:04;;;;;;;9.07;2.70;;;11.90;1.00;;;;;;5020854;28;20467;-56
2021/12/02 11:04:42;;;;;;;5.70;1.57;;;11.00;1.00;;;;;;5022534;28;20446;-54
2021/12/02 11:07:18;;;;;;;5.80;1.83;;;10.20;99.90;;;;;;5019041;28;20468;-55
2021/12/02 11:09:43;;;;;;;6.00;2.10;;;9.80;99.90;;;;;;5017160;28;20543;-54
2021/12/02 11:12:17;;;;;;;3.77;1.60;;;9.70;99.90;;;;;;5019767;28;20464;-54
2021/12/02 11:15:06;;;;;;;4.30;1.30;;;9.20;99.90;;;;;;5020101;28;20718;-54
2021/12/02 11:17:44;;;;;;;4.53;1.43;;;9.20;1.00;;;;;;5019989;28;20445;-54
2021/12/02 11:20:15;;;;;;;7.33;1.70;;;9.00;99.90;;;;;;5019663;28;20449;-56
2021/12/02 11:22:41;;;;;;;5.60;1.50;;;8.80;1.00;;;;;;5017948;28;20837;-56
2021/12/02 11:25:09;;;;;;;3.57;1.50;;;8.50;1.00;;;;;;5017784;28;20442;-56
2021/12/02 11:27:42;;;;;;;7.07;1.90;;;8.20;99.90;;;;;;5020948;28;20214;-55
2021/12/02 11:30:16;;;;;;;4.17;1.30;;;8.10;99.90;;;;;;5019684;28;20497;-55
2021/12/02 11:32:53;;;;;;;5.67;1.70;;;8.10;99.90;;;;;;5020118;28;20937;-55
2021/12/02 11:35:23;;;;;;;5.33;1.87;;;8.00;99.90;;;;;;5015874;28;20450;-55
2021/12/02 11:37:58;;;;;;;9.90;1.90;;;7.70;99.90;;;;;;5016319;28;20444;-55
2021/12/02 11:40:26;;;;;;;4.90;1.70;;;7.20;99.90;;;;;;5019896;28;20441;-55
2021/12/02 11:42:53;;;;;;;7.80;2.10;;;6.70;1.00;;;;;;5018455;28;20529;-55
2021/12/02 11:45:22;;;;;;;12.07;1.90;;;6.20;1.00;;;;;;5015984;28;20442;-55
2021/12/02 11:47:50;;;;;;;5.57;1.73;;;5.60;1.00;;;;;;5019914;28;20434;-55
2021/12/02 11:50:17;;;;;;;5.97;1.40;;;5.10;99.90;;;;;;5016510;28;20482;-55
2021/12/02 11:52:44;;;;;;;7.77;1.30;;;4.80;99.90;;;;;;5032103;28;20925;-54
2021/12/02 11:55:13;;;;;;;5.13;1.77;;;4.50;99.90;;;;;;5022007;28;21203;-54
2021/12/02 11:57:39;;;;;;;2.87;1.30;;;4.30;99.90;;;;;;5038803;28;20438;-54
2021/12/02 12:00:08;;;;;;;5.40;1.40;;;3.90;99.90;;;;;;5027785;28;20520;-55
2021/12/02 12:02:34;;;;;;;6.17;2.03;;;3.80;99.90;;;;;;5027673;28;20541;-61
2021/12/02 12:05:02;;;;;;;9.10;1.70;;;3.60;1.00;;;;;;5014795;28;20533;-55
2021/12/02 12:07:46;;;;;;;3.30;1.87;;;3.50;1.00;;;;;;5021994;28;20200;-54
2021/12/02 12:10:14;;;;;;;4.80;1.53;;;3.40;1.00;;;;;;5015125;28;20481;-54
2021/12/02 12:12:43;;;;;;;7.73;2.20;;;3.30;1.00;;;;;;5031953;28;20484;-54
2021/12/02 12:15:33;;;;;;;8.60;4.73;;;3.10;1.00;;;;;;5014396;28;20462;-55
2021/12/02 12:18:00;;;;;;;3.67;1.53;;;3.10;1.00;;;;;;5013908;28;20482;-54
2021/12/02 12:20:56;;;;;;;5.50;1.70;;;3.10;1.00;;;;;;5020082;28;20453;-54
2021/12/02 12:23:34;;;;;;;7.73;1.47;;;3.00;1.00;;;;;;5022170;28;20455;-54
2021/12/02 12:26:18;;;;;;;11.93;1.67;;;3.00;1.00;;;;;;5013870;28;21014;-54
2021/12/02 12:29:09;;;;;;;13.43;1.73;;;3.00;1.00;;;;;;5020444;28;20452;-54
2021/12/02 12:31:37;;;;;;;7.53;1.40;;;2.90;1.00;;;;;;5017182;28;20466;-54
2021/12/02 12:35:17;;;;;;;2.60;1.40;;;2.80;1.00;;;;;;5014639;28;20445;-53
2021/12/02 12:38:02;;;;;;;6.20;1.40;;;2.80;1.00;;;;;;5014911;28;20438;-54
2021/12/02 12:40:28;;;;;;;3.40;1.50;;;2.90;1.00;;;;;;5011877;28;20434;-55
2021/12/02 12:43:02;;;;;;;3.20;1.37;;;3.00;1.00;;;;;;5016771;28;20450;-54
2021/12/02 12:45:39;;;;;;;3.23;1.57;;;3.00;1.00;;;;;;5018673;28;20539;-53
2021/12/02 12:48:23;;;;;;;4.97;1.40;;;3.10;1.00;;;;;;5018508;28;20450;-55
2021/12/02 12:50:49;;;;;;;7.50;1.70;;;3.10;1.00;;;;;;5016759;28;20663;-54
2021/12/02 12:53:33;;;;;;;4.43;1.73;;;3.10;1.00;;;;;;5017574;28;20800;-58
2021/12/02 12:55:58;;;;;;;3.87;1.47;;;3.10;1.00;;;;;;5015579;28;20191;-55
2021/12/02 12:58:29;;;;;;;7.47;1.50;;;3.20;1.00;;;;;;5019169;28;20951;-55
2021/12/02 13:00:56;;;;;;;4.60;1.83;;;3.30;1.00;;;;;;5018367;28;20245;-57
2021/12/02 13:03:45;;;;;;;5.90;1.20;;;3.30;1.00;;;;;;5015209;28;20939;-55
2021/12/02 13:06:23;;;;;;;3.90;1.67;;;3.50;1.00;;;;;;5016040;28;20434;-56
2021/12/02 13:08:53;;;;;;;7.80;2.10;;;3.50;1.00;;;;;;5020890;28;20438;-55
2021/12/02 13:11:24;;;;;;;6.20;1.57;;;3.40;1.00;;;;;;5020597;28;20489;-55
2021/12/02 13:13:52;;;;;;;5.90;1.67;;;3.40;1.00;;;;;;5017554;28;20457;-55
2021/12/02 13:16:18;;;;;;;4.23;1.83;;;3.50;1.00;;;;;;5014373;28;20484;-54
2021/12/02 13:18:52;;;;;;;4.07;1.90;;;3.30;1.00;;;;;;5015293;28;20437;-56
2021/12/02 13:21:21;;;;;;;8.90;1.60;;;3.20;1.00;;;;;;5019663;28;20820;-56
2021/12/02 13:24:11;;;;;;;3.37;1.90;;;3.00;1.00;;;;;;5019057;28;20457;-56
2021/12/02 13:26:43;;;;;;;5.30;2.10;;;2.80;1.00;;;;;;5015530;28;20468;-57
2021/12/02 13:29:11;;;;;;;11.20;2.00;;;2.80;1.00;;;;;;5014498;28;20459;-55
2021/12/02 13:31:39;;;;;;;2.93;2.07;;;2.80;1.00;;;;;;5016976;28;20536;-56
2021/12/02 13:34:11;;;;;;;12.13;1.90;;;2.80;1.00;;;;;;5018268;28;20499;-55